KTCS/TCS METAR and TAF weather

Enter ICAO airport designator
Station Type Date Time Source
KTCS METAR 2022/01/26 06:53 UTC NOAA

KTCS 260653Z AUTO 28006KT 10SM CLR 03/M10 A2999 RMK AO2 SLP128 T00331100 401721017


Station Type Date Time Source
KTCS Decoded METAR 2022/01/26 06:53 UTC NOAA

TRUTH OR CONSEQUENCES MUNI, NM, United States (KTCS) 33-14N 107-16W 1469M
Jan 26, 2022 - 01:53 AM EST / 2022.01.26 0653 UTC
Wind: from the W (280 degrees) at 7 MPH (6 KT):0
Visibility: 10 mile(s):0
Sky conditions: clear
Temperature: 37.9 F (3.3 C)
Dew Point: 14.0 F (-10.0 C)
Relative Humidity: 36%
Pressure (altimeter): 29.99 in. Hg (1015 hPa)
ob: KTCS 260653Z AUTO 28006KT 10SM CLR 03/M10 A2999 RMK AO2 SLP128 T00331100 401721017
cycle: 7

Station Type Date Time Source
KTCS TAF 2022/01/26 06:30 UTC NOAA

TAF KTCS 260526Z 2606/2706 32007KT P6SM SCT200
FM260900 35011G21KT P6SM FEW250
FM261600 01010KT P6SM SKC

Example: see airport list